sensor_id;sensor_type;location;lat;lon;timestamp;pressure;altitude;pressure_sealevel;temperature;humidity
70971;BME280;58632;51.718;19.446;2023-05-24T00:01:47;99172.33;;;17.08;100.00
70971;BME280;58632;51.718;19.446;2023-05-24T00:04:12;99172.23;;;17.05;100.00
70971;BME280;58632;51.718;19.446;2023-05-24T00:06:39;99169.82;;;17.01;100.00
70971;BME280;58632;51.718;19.446;2023-05-24T00:09:05;99177.98;;;16.96;100.00
70971;BME280;58632;51.718;19.446;2023-05-24T00:11:34;99172.69;;;16.87;100.00
70971;BME280;58632;51.718;19.446;2023-05-24T00:14:00;99177.38;;;16.83;100.00
70971;BME280;58632;51.718;19.446;2023-05-24T00:16:25;99176.55;;;16.80;100.00
70971;BME280;58632;51.718;19.446;2023-05-24T00:18:51;99175.13;;;16.75;100.00
70971;BME280;58632;51.718;19.446;2023-05-24T00:21:16;99172.92;;;16.68;100.00
70971;BME280;58632;51.718;19.446;2023-05-24T00:23:42;99174.59;;;16.62;100.00
70971;BME280;58632;51.718;19.446;2023-05-24T00:26:08;99174.70;;;16.58;100.00
70971;BME280;58632;51.718;19.446;2023-05-24T00:28:33;99173.60;;;16.52;100.00
70971;BME280;58632;51.718;19.446;2023-05-24T00:30:59;99169.73;;;16.51;100.00
70971;BME280;58632;51.718;19.446;2023-05-24T00:33:25;99171.23;;;16.53;100.00
70971;BME280;58632;51.718;19.446;2023-05-24T00:35:52;99170.61;;;16.52;100.00
70971;BME280;58632;51.718;19.446;2023-05-24T00:38:29;99168.50;;;16.54;100.00
70971;BME280;58632;51.718;19.446;2023-05-24T00:40:55;99168.56;;;16.52;100.00
70971;BME280;58632;51.718;19.446;2023-05-24T00:43:21;99164.27;;;16.49;100.00
70971;BME280;58632;51.718;19.446;2023-05-24T00:45:47;99165.91;;;16.49;100.00
70971;BME280;58632;51.718;19.446;2023-05-24T00:48:12;99166.92;;;16.47;100.00
70971;BME280;58632;51.718;19.446;2023-05-24T00:50:38;99172.13;;;16.45;100.00
70971;BME280;58632;51.718;19.446;2023-05-24T00:53:04;99175.63;;;16.43;100.00
70971;BME280;58632;51.718;19.446;2023-05-24T00:55:30;99175.53;;;16.35;100.00
70971;BME280;58632;51.718;19.446;2023-05-24T00:57:58;99171.06;;;16.25;100.00
70971;BME280;58632;51.718;19.446;2023-05-24T01:00:23;99171.89;;;16.16;100.00
70971;BME280;58632;51.718;19.446;2023-05-24T01:02:49;99171.77;;;16.06;100.00
70971;BME280;58632;51.718;19.446;2023-05-24T01:05:15;99166.77;;;15.99;100.00
70971;BME280;58632;51.718;19.446;2023-05-24T01:07:53;99170.48;;;15.88;100.00
70971;BME280;58632;51.718;19.446;2023-05-24T01:13:03;99170.69;;;15.71;100.00
70971;BME280;58632;51.718;19.446;2023-05-24T01:15:40;99175.30;;;15.60;100.00
70971;BME280;58632;51.718;19.446;2023-05-24T01:18:12;99173.33;;;15.49;100.00
70971;BME280;58632;51.718;19.446;2023-05-24T01:20:40;99177.05;;;15.40;100.00
70971;BME280;58632;51.718;19.446;2023-05-24T01:26:02;99175.79;;;15.30;100.00
70971;BME280;58632;51.718;19.446;2023-05-24T01:28:31;99177.10;;;15.24;100.00
70971;BME280;58632;51.718;19.446;2023-05-24T01:30:58;99175.98;;;15.15;100.00
70971;BME280;58632;51.718;19.446;2023-05-24T01:33:24;99179.67;;;15.09;100.00
70971;BME280;58632;51.718;19.446;2023-05-24T01:35:49;99177.02;;;15.07;100.00
70971;BME280;58632;51.718;19.446;2023-05-24T01:38:15;99177.14;;;15.00;100.00
70971;BME280;58632;51.718;19.446;2023-05-24T01:40:40;99175.36;;;14.89;100.00
70971;BME280;58632;51.718;19.446;2023-05-24T01:45:37;99179.40;;;14.76;100.00
70971;BME280;58632;51.718;19.446;2023-05-24T01:48:15;99183.41;;;14.73;100.00
70971;BME280;58632;51.718;19.446;2023-05-24T01:53:15;99188.20;;;14.72;100.00
70971;BME280;58632;51.718;19.446;2023-05-24T01:55:42;99191.54;;;14.69;100.00
70971;BME280;58632;51.718;19.446;2023-05-24T01:58:11;99194.19;;;14.64;100.00
70971;BME280;58632;51.718;19.446;2023-05-24T02:00:37;99200.50;;;14.61;100.00
70971;BME280;58632;51.718;19.446;2023-05-24T02:03:04;99202.92;;;14.60;100.00
70971;BME280;58632;51.718;19.446;2023-05-24T02:05:31;99206.86;;;14.59;100.00
70971;BME280;58632;51.718;19.446;2023-05-24T02:07:56;99209.48;;;14.57;100.00
70971;BME280;58632;51.718;19.446;2023-05-24T02:10:22;99211.70;;;14.54;100.00
70971;BME280;58632;51.718;19.446;2023-05-24T02:12:47;99209.80;;;14.51;100.00
70971;BME280;58632;51.718;19.446;2023-05-24T02:15:13;99210.19;;;14.47;100.00
70971;BME280;58632;51.718;19.446;2023-05-24T02:17:39;99212.31;;;14.43;100.00
70971;BME280;58632;51.718;19.446;2023-05-24T02:20:04;99213.58;;;14.39;100.00
70971;BME280;58632;51.718;19.446;2023-05-24T02:22:31;99215.30;;;14.35;100.00
70971;BME280;58632;51.718;19.446;2023-05-24T02:24:56;99215.10;;;14.30;100.00
70971;BME280;58632;51.718;19.446;2023-05-24T02:27:21;99216.91;;;14.26;100.00
70971;BME280;58632;51.718;19.446;2023-05-24T02:29:47;99220.88;;;14.24;100.00
70971;BME280;58632;51.718;19.446;2023-05-24T02:32:12;99223.33;;;14.21;100.00
70971;BME280;58632;51.718;19.446;2023-05-24T02:34:37;99222.77;;;14.17;100.00
70971;BME280;58632;51.718;19.446;2023-05-24T02:37:03;99223.98;;;14.15;100.00
70971;BME280;58632;51.718;19.446;2023-05-24T02:39:28;99229.55;;;14.14;100.00
70971;BME280;58632;51.718;19.446;2023-05-24T02:41:54;99228.40;;;14.12;100.00
70971;BME280;58632;51.718;19.446;2023-05-24T02:44:19;99229.77;;;14.11;100.00
70971;BME280;58632;51.718;19.446;2023-05-24T02:46:45;99230.69;;;14.09;100.00
70971;BME280;58632;51.718;19.446;2023-05-24T02:49:10;99228.30;;;14.11;100.00
70971;BME280;58632;51.718;19.446;2023-05-24T02:51:36;99228.17;;;14.16;100.00
70971;BME280;58632;51.718;19.446;2023-05-24T02:54:02;99226.08;;;14.21;100.00
70971;BME280;58632;51.718;19.446;2023-05-24T02:56:29;99225.70;;;14.26;100.00
70971;BME280;58632;51.718;19.446;2023-05-24T02:58:55;99229.14;;;14.31;100.00
70971;BME280;58632;51.718;19.446;2023-05-24T03:01:20;99234.11;;;14.40;100.00
70971;BME280;58632;51.718;19.446;2023-05-24T03:03:46;99237.72;;;14.50;100.00
70971;BME280;58632;51.718;19.446;2023-05-24T03:06:12;99235.96;;;14.59;100.00
70971;BME280;58632;51.718;19.446;2023-05-24T03:08:38;99232.36;;;14.72;100.00
70971;BME280;58632;51.718;19.446;2023-05-24T03:11:04;99234.73;;;14.80;100.00
70971;BME280;58632;51.718;19.446;2023-05-24T03:13:29;99236.42;;;14.90;100.00
70971;BME280;58632;51.718;19.446;2023-05-24T03:15:55;99237.66;;;15.01;100.00
70971;BME280;58632;51.718;19.446;2023-05-24T03:18:20;99241.58;;;15.12;100.00
70971;BME280;58632;51.718;19.446;2023-05-24T03:20:48;99243.27;;;15.23;100.00
70971;BME280;58632;51.718;19.446;2023-05-24T03:23:14;99245.86;;;15.35;100.00
70971;BME280;58632;51.718;19.446;2023-05-24T03:25:39;99249.80;;;15.50;100.00
70971;BME280;58632;51.718;19.446;2023-05-24T03:28:05;99251.73;;;15.61;100.00
70971;BME280;58632;51.718;19.446;2023-05-24T03:30:31;99259.77;;;15.69;100.00
70971;BME280;58632;51.718;19.446;2023-05-24T03:32:56;99267.31;;;15.80;100.00
70971;BME280;58632;51.718;19.446;2023-05-24T03:35:22;99267.16;;;15.96;100.00
70971;BME280;58632;51.718;19.446;2023-05-24T03:37:47;99271.05;;;16.13;100.00
70971;BME280;58632;51.718;19.446;2023-05-24T03:40:13;99272.91;;;16.27;100.00
70971;BME280;58632;51.718;19.446;2023-05-24T03:42:38;99274.02;;;16.44;100.00
70971;BME280;58632;51.718;19.446;2023-05-24T03:45:04;99272.63;;;16.65;100.00
70971;BME280;58632;51.718;19.446;2023-05-24T03:47:29;99274.50;;;16.80;100.00
70971;BME280;58632;51.718;19.446;2023-05-24T03:49:55;99275.42;;;16.84;100.00
70971;BME280;58632;51.718;19.446;2023-05-24T03:52:20;99275.20;;;16.84;100.00
70971;BME280;58632;51.718;19.446;2023-05-24T03:54:45;99275.18;;;16.90;100.00
70971;BME280;58632;51.718;19.446;2023-05-24T03:57:11;99280.20;;;17.00;100.00
70971;BME280;58632;51.718;19.446;2023-05-24T03:59:36;99276.03;;;17.09;100.00
70971;BME280;58632;51.718;19.446;2023-05-24T04:02:02;99272.83;;;17.19;100.00
70971;BME280;58632;51.718;19.446;2023-05-24T04:04:27;99280.82;;;17.27;100.00
70971;BME280;58632;51.718;19.446;2023-05-24T04:06:52;99284.04;;;17.40;100.00
70971;BME280;58632;51.718;19.446;2023-05-24T04:09:20;99286.70;;;17.54;100.00
70971;BME280;58632;51.718;19.446;2023-05-24T04:11:45;99286.67;;;17.60;100.00
70971;BME280;58632;51.718;19.446;2023-05-24T04:14:11;99289.91;;;17.67;100.00
70971;BME280;58632;51.718;19.446;2023-05-24T04:16:36;99290.58;;;17.71;100.00
70971;BME280;58632;51.718;19.446;2023-05-24T04:19:03;99293.13;;;17.73;100.00
70971;BME280;58632;51.718;19.446;2023-05-24T04:21:29;99293.65;;;17.79;100.00
70971;BME280;58632;51.718;19.446;2023-05-24T04:23:54;99293.80;;;17.94;100.00
70971;BME280;58632;51.718;19.446;2023-05-24T04:26:20;99301.59;;;18.31;100.00
70971;BME280;58632;51.718;19.446;2023-05-24T04:28:46;99303.88;;;18.84;100.00
70971;BME280;58632;51.718;19.446;2023-05-24T04:31:12;99302.88;;;19.77;100.00
70971;BME280;58632;51.718;19.446;2023-05-24T04:33:39;99304.68;;;20.52;100.00
70971;BME280;58632;51.718;19.446;2023-05-24T04:36:05;99304.20;;;21.05;100.00
70971;BME280;58632;51.718;19.446;2023-05-24T04:38:32;99306.39;;;21.28;100.00
70971;BME280;58632;51.718;19.446;2023-05-24T04:41:00;99311.77;;;21.04;100.00
70971;BME280;58632;51.718;19.446;2023-05-24T04:43:25;99308.36;;;21.17;100.00
70971;BME280;58632;51.718;19.446;2023-05-24T04:45:51;99312.24;;;21.53;100.00
70971;BME280;58632;51.718;19.446;2023-05-24T04:48:19;99307.54;;;21.37;100.00
70971;BME280;58632;51.718;19.446;2023-05-24T04:50:45;99315.86;;;21.47;100.00
70971;BME280;58632;51.718;19.446;2023-05-24T04:53:11;99319.73;;;21.86;100.00
70971;BME280;58632;51.718;19.446;2023-05-24T04:55:38;99324.29;;;22.14;100.00
70971;BME280;58632;51.718;19.446;2023-05-24T04:58:04;99324.70;;;22.04;100.00
70971;BME280;58632;51.718;19.446;2023-05-24T05:00:29;99329.92;;;21.87;100.00
70971;BME280;58632;51.718;19.446;2023-05-24T05:02:55;99330.24;;;21.66;100.00
70971;BME280;58632;51.718;19.446;2023-05-24T05:05:20;99327.25;;;21.45;100.00
70971;BME280;58632;51.718;19.446;2023-05-24T05:07:46;99329.82;;;21.38;100.00
70971;BME280;58632;51.718;19.446;2023-05-24T05:10:14;99329.67;;;21.36;100.00
70971;BME280;58632;51.718;19.446;2023-05-24T05:12:39;99334.58;;;21.24;100.00
70971;BME280;58632;51.718;19.446;2023-05-24T05:15:05;99335.01;;;21.17;100.00
70971;BME280;58632;51.718;19.446;2023-05-24T05:17:31;99342.95;;;21.00;100.00
70971;BME280;58632;51.718;19.446;2023-05-24T05:19:56;99342.67;;;20.89;100.00
70971;BME280;58632;51.718;19.446;2023-05-24T05:22:22;99344.50;;;20.88;100.00
70971;BME280;58632;51.718;19.446;2023-05-24T05:24:47;99348.90;;;21.02;100.00
70971;BME280;58632;51.718;19.446;2023-05-24T05:27:12;99347.05;;;21.45;100.00
70971;BME280;58632;51.718;19.446;2023-05-24T05:29:38;99346.75;;;22.24;100.00
70971;BME280;58632;51.718;19.446;2023-05-24T05:32:04;99351.70;;;23.11;100.00
70971;BME280;58632;51.718;19.446;2023-05-24T05:34:29;99348.77;;;23.81;100.00
70971;BME280;58632;51.718;19.446;2023-05-24T05:36:55;99355.29;;;24.31;99.38
70971;BME280;58632;51.718;19.446;2023-05-24T05:39:20;99359.94;;;24.25;93.43
70971;BME280;58632;51.718;19.446;2023-05-24T05:41:45;99358.58;;;23.88;94.63
70971;BME280;58632;51.718;19.446;2023-05-24T05:44:11;99363.40;;;23.52;96.12
70971;BME280;58632;51.718;19.446;2023-05-24T05:46:37;99369.68;;;23.17;97.17
70971;BME280;58632;51.718;19.446;2023-05-24T05:49:03;99371.77;;;22.92;99.82
70971;BME280;58632;51.718;19.446;2023-05-24T05:51:29;99376.10;;;22.91;100.00
70971;BME280;58632;51.718;19.446;2023-05-24T05:53:54;99376.52;;;22.89;100.00
70971;BME280;58632;51.718;19.446;2023-05-24T05:56:20;99380.98;;;22.74;99.15
70971;BME280;58632;51.718;19.446;2023-05-24T05:58:48;99385.10;;;22.33;99.61
70971;BME280;58632;51.718;19.446;2023-05-24T06:01:14;99382.86;;;21.89;100.00
70971;BME280;58632;51.718;19.446;2023-05-24T06:03:39;99392.44;;;21.59;100.00
70971;BME280;58632;51.718;19.446;2023-05-24T06:06:07;99395.45;;;21.45;100.00
70971;BME280;58632;51.718;19.446;2023-05-24T06:08:32;99395.52;;;21.50;100.00
70971;BME280;58632;51.718;19.446;2023-05-24T06:11:01;99399.73;;;21.50;100.00
70971;BME280;58632;51.718;19.446;2023-05-24T06:13:27;99404.79;;;21.55;100.00
70971;BME280;58632;51.718;19.446;2023-05-24T06:15:56;99408.00;;;21.67;100.00
70971;BME280;58632;51.718;19.446;2023-05-24T06:18:23;99406.58;;;21.80;100.00
70971;BME280;58632;51.718;19.446;2023-05-24T06:20:51;99408.75;;;21.99;100.00
70971;BME280;58632;51.718;19.446;2023-05-24T06:23:16;99410.14;;;22.59;100.00
70971;BME280;58632;51.718;19.446;2023-05-24T06:25:42;99411.40;;;23.18;100.00
70971;BME280;58632;51.718;19.446;2023-05-24T06:28:08;99417.89;;;23.68;98.32
70971;BME280;58632;51.718;19.446;2023-05-24T06:30:34;99419.84;;;23.96;94.84
70971;BME280;58632;51.718;19.446;2023-05-24T06:32:59;99424.55;;;23.91;91.48
70971;BME280;58632;51.718;19.446;2023-05-24T06:35:28;99431.41;;;23.59;91.23
70971;BME280;58632;51.718;19.446;2023-05-24T06:37:53;99434.11;;;23.48;96.44
70971;BME280;58632;51.718;19.446;2023-05-24T06:40:18;99437.66;;;23.77;96.84
70971;BME280;58632;51.718;19.446;2023-05-24T06:42:44;99440.23;;;24.17;92.09
70971;BME280;58632;51.718;19.446;2023-05-24T06:45:10;99437.36;;;24.62;89.40
70971;BME280;58632;51.718;19.446;2023-05-24T06:47:35;99447.88;;;24.97;83.94
70971;BME280;58632;51.718;19.446;2023-05-24T06:50:01;99445.30;;;25.15;80.92
70971;BME280;58632;51.718;19.446;2023-05-24T06:52:28;99451.58;;;25.18;81.51
70971;BME280;58632;51.718;19.446;2023-05-24T06:54:53;99449.20;;;25.34;77.13
70971;BME280;58632;51.718;19.446;2023-05-24T06:57:19;99448.40;;;25.58;76.77
70971;BME280;58632;51.718;19.446;2023-05-24T06:59:45;99450.86;;;25.93;75.78
70971;BME280;58632;51.718;19.446;2023-05-24T07:02:13;99457.77;;;26.42;74.72
70971;BME280;58632;51.718;19.446;2023-05-24T07:04:38;99459.86;;;26.83;70.34
70971;BME280;58632;51.718;19.446;2023-05-24T07:07:05;99459.71;;;27.17;66.63
70971;BME280;58632;51.718;19.446;2023-05-24T07:09:30;99459.77;;;27.53;68.15
70971;BME280;58632;51.718;19.446;2023-05-24T07:11:58;99459.14;;;27.86;65.53
70971;BME280;58632;51.718;19.446;2023-05-24T07:14:24;99466.36;;;27.92;62.58
70971;BME280;58632;51.718;19.446;2023-05-24T07:16:51;99468.81;;;27.57;59.97
70971;BME280;58632;51.718;19.446;2023-05-24T07:19:19;99474.34;;;27.10;63.02
70971;BME280;58632;51.718;19.446;2023-05-24T07:21:46;99480.58;;;26.71;64.33
70971;BME280;58632;51.718;19.446;2023-05-24T07:24:11;99488.45;;;26.32;64.92
70971;BME280;58632;51.718;19.446;2023-05-24T07:26:36;99490.82;;;26.02;67.48
70971;BME280;58632;51.718;19.446;2023-05-24T07:29:02;99495.59;;;26.04;67.98
70971;BME280;58632;51.718;19.446;2023-05-24T07:31:28;99496.68;;;26.16;69.37
70971;BME280;58632;51.718;19.446;2023-05-24T07:33:55;99497.98;;;26.19;68.00
70971;BME280;58632;51.718;19.446;2023-05-24T07:36:20;99500.92;;;26.02;68.54
70971;BME280;58632;51.718;19.446;2023-05-24T07:38:46;99502.73;;;26.00;69.62
70971;BME280;58632;51.718;19.446;2023-05-24T07:41:12;99501.70;;;25.95;66.89
70971;BME280;58632;51.718;19.446;2023-05-24T07:43:39;99508.13;;;25.62;66.79
70971;BME280;58632;51.718;19.446;2023-05-24T07:46:05;99510.29;;;25.43;69.57
70971;BME280;58632;51.718;19.446;2023-05-24T07:48:30;99515.55;;;25.39;69.63
70971;BME280;58632;51.718;19.446;2023-05-24T07:50:56;99518.61;;;25.34;70.21
70971;BME280;58632;51.718;19.446;2023-05-24T07:53:21;99522.90;;;25.18;70.42
70971;BME280;58632;51.718;19.446;2023-05-24T07:55:47;99527.37;;;24.85;71.62
70971;BME280;58632;51.718;19.446;2023-05-24T07:58:15;99533.91;;;24.55;72.74
70971;BME280;58632;51.718;19.446;2023-05-24T08:00:41;99539.88;;;24.18;73.53
70971;BME280;58632;51.718;19.446;2023-05-24T08:03:06;99546.42;;;23.93;74.48
70971;BME280;58632;51.718;19.446;2023-05-24T08:05:31;99549.50;;;23.84;74.78
70971;BME280;58632;51.718;19.446;2023-05-24T08:07:57;99551.20;;;23.73;74.37
70971;BME280;58632;51.718;19.446;2023-05-24T08:10:22;99553.95;;;23.61;74.66
70971;BME280;58632;51.718;19.446;2023-05-24T08:12:49;99557.34;;;23.65;75.19
70971;BME280;58632;51.718;19.446;2023-05-24T08:15:18;99560.09;;;23.48;73.61
70971;BME280;58632;51.718;19.446;2023-05-24T08:17:44;99561.52;;;23.33;76.36
70971;BME280;58632;51.718;19.446;2023-05-24T08:20:10;99565.67;;;23.23;76.30
70971;BME280;58632;51.718;19.446;2023-05-24T08:22:38;99567.67;;;23.22;77.07
70971;BME280;58632;51.718;19.446;2023-05-24T08:25:04;99568.45;;;23.24;78.46
70971;BME280;58632;51.718;19.446;2023-05-24T08:27:30;99575.19;;;23.37;77.05
70971;BME280;58632;51.718;19.446;2023-05-24T08:29:55;99583.64;;;23.63;76.91
70971;BME280;58632;51.718;19.446;2023-05-24T08:32:21;99583.50;;;23.85;75.55
70971;BME280;58632;51.718;19.446;2023-05-24T08:34:46;99583.20;;;23.84;73.57
70971;BME280;58632;51.718;19.446;2023-05-24T08:37:11;99583.80;;;23.87;73.08
70971;BME280;58632;51.718;19.446;2023-05-24T08:39:39;99584.92;;;23.93;73.91
70971;BME280;58632;51.718;19.446;2023-05-24T08:42:05;99587.05;;;23.90;70.57
70971;BME280;58632;51.718;19.446;2023-05-24T08:44:31;99590.09;;;23.82;71.53
70971;BME280;58632;51.718;19.446;2023-05-24T08:47:03;99592.09;;;23.89;73.88
70971;BME280;58632;51.718;19.446;2023-05-24T08:49:29;99593.99;;;24.03;73.09
70971;BME280;58632;51.718;19.446;2023-05-24T08:51:54;99597.86;;;24.07;72.20
70971;BME280;58632;51.718;19.446;2023-05-24T08:54:21;99600.49;;;24.01;71.08
70971;BME280;58632;51.718;19.446;2023-05-24T08:56:46;99600.61;;;23.84;71.93
70971;BME280;58632;51.718;19.446;2023-05-24T08:59:12;99603.98;;;23.75;75.36
70971;BME280;58632;51.718;19.446;2023-05-24T09:01:38;99595.69;;;23.75;75.96
70971;BME280;58632;51.718;19.446;2023-05-24T09:04:04;99601.16;;;23.92;77.32
70971;BME280;58632;51.718;19.446;2023-05-24T09:06:30;99597.65;;;24.17;77.42
70971;BME280;58632;51.718;19.446;2023-05-24T09:08:57;99599.96;;;24.31;75.46
70971;BME280;58632;51.718;19.446;2023-05-24T09:11:23;99607.33;;;24.24;74.38
70971;BME280;58632;51.718;19.446;2023-05-24T09:13:51;99604.21;;;24.10;74.53
70971;BME280;58632;51.718;19.446;2023-05-24T09:16:16;99606.67;;;24.05;75.04
70971;BME280;58632;51.718;19.446;2023-05-24T09:18:42;99610.48;;;24.08;74.68
70971;BME280;58632;51.718;19.446;2023-05-24T09:21:08;99611.33;;;24.04;74.45
70971;BME280;58632;51.718;19.446;2023-05-24T09:23:34;99619.55;;;23.97;74.00
70971;BME280;58632;51.718;19.446;2023-05-24T09:26:05;99622.28;;;23.81;74.23
70971;BME280;58632;51.718;19.446;2023-05-24T09:28:31;99624.60;;;23.73;75.28
70971;BME280;58632;51.718;19.446;2023-05-24T09:31:02;99630.88;;;23.78;75.89
70971;BME280;58632;51.718;19.446;2023-05-24T09:33:31;99635.14;;;23.73;74.22
70971;BME280;58632;51.718;19.446;2023-05-24T09:35:57;99641.02;;;23.67;75.52
70971;BME280;58632;51.718;19.446;2023-05-24T09:38:23;99645.14;;;23.54;75.26
70971;BME280;58632;51.718;19.446;2023-05-24T09:43:48;99649.42;;;22.95;79.94
70971;BME280;58632;51.718;19.446;2023-05-24T09:46:17;99652.01;;;22.77;81.28
70971;BME280;58632;51.718;19.446;2023-05-24T09:51:38;99648.31;;;22.52;83.26
70971;BME280;58632;51.718;19.446;2023-05-24T09:54:03;99647.11;;;22.53;83.39
70971;BME280;58632;51.718;19.446;2023-05-24T09:56:32;99648.00;;;22.65;84.43
70971;BME280;58632;51.718;19.446;2023-05-24T09:58:57;99649.49;;;22.68;82.78
70971;BME280;58632;51.718;19.446;2023-05-24T10:01:23;99649.19;;;22.56;83.45
70971;BME280;58632;51.718;19.446;2023-05-24T10:03:51;99656.30;;;22.63;82.89
70971;BME280;58632;51.718;19.446;2023-05-24T10:06:16;99661.40;;;22.79;81.50
70971;BME280;58632;51.718;19.446;2023-05-24T10:08:42;99661.39;;;22.81;80.48
70971;BME280;58632;51.718;19.446;2023-05-24T10:11:08;99663.55;;;22.93;82.81
70971;BME280;58632;51.718;19.446;2023-05-24T10:13:34;99659.65;;;23.18;81.78
70971;BME280;58632;51.718;19.446;2023-05-24T10:16:00;99669.89;;;23.34;81.00
70971;BME280;58632;51.718;19.446;2023-05-24T10:18:25;99671.55;;;23.45;79.08
70971;BME280;58632;51.718;19.446;2023-05-24T10:20:53;99672.79;;;23.60;77.34
70971;BME280;58632;51.718;19.446;2023-05-24T10:23:20;99672.01;;;23.66;76.19
70971;BME280;58632;51.718;19.446;2023-05-24T10:25:51;99672.85;;;23.61;76.11
70971;BME280;58632;51.718;19.446;2023-05-24T10:28:19;99677.89;;;23.61;74.55
70971;BME280;58632;51.718;19.446;2023-05-24T10:30:56;99688.75;;;23.52;75.91
70971;BME280;58632;51.718;19.446;2023-05-24T10:33:24;99692.05;;;23.37;75.97
70971;BME280;58632;51.718;19.446;2023-05-24T10:35:50;99691.53;;;23.24;76.66
70971;BME280;58632;51.718;19.446;2023-05-24T10:38:16;99698.47;;;23.23;77.18
70971;BME280;58632;51.718;19.446;2023-05-24T10:40:44;99705.00;;;23.14;76.40
70971;BME280;58632;51.718;19.446;2023-05-24T10:43:10;99705.44;;;22.90;76.77
70971;BME280;58632;51.718;19.446;2023-05-24T10:45:36;99709.90;;;22.61;78.17
70971;BME280;58632;51.718;19.446;2023-05-24T10:48:53;99707.41;;;22.47;80.52
70971;BME280;58632;51.718;19.446;2023-05-24T10:50:47;99707.26;;;22.44;81.61
70971;BME280;58632;51.718;19.446;2023-05-24T10:53:14;99706.01;;;22.37;81.73
70971;BME280;58632;51.718;19.446;2023-05-24T10:58:43;99708.46;;;22.06;84.09
70971;BME280;58632;51.718;19.446;2023-05-24T11:01:27;99711.43;;;21.87;84.89
70971;BME280;58632;51.718;19.446;2023-05-24T11:04:09;99720.13;;;21.75;86.71
70971;BME280;58632;51.718;19.446;2023-05-24T11:06:47;99718.44;;;21.93;86.69
70971;BME280;58632;51.718;19.446;2023-05-24T11:09:16;99720.08;;;22.21;85.75
70971;BME280;58632;51.718;19.446;2023-05-24T11:11:48;99715.91;;;22.51;84.21
70971;BME280;58632;51.718;19.446;2023-05-24T11:14:18;99727.63;;;22.73;81.36
70971;BME280;58632;51.718;19.446;2023-05-24T11:16:44;99723.00;;;22.70;80.65
70971;BME280;58632;51.718;19.446;2023-05-24T11:19:23;99725.11;;;22.81;80.10
70971;BME280;58632;51.718;19.446;2023-05-24T11:21:49;99723.74;;;22.83;78.29
70971;BME280;58632;51.718;19.446;2023-05-24T11:24:15;99723.85;;;22.92;80.54
70971;BME280;58632;51.718;19.446;2023-05-24T11:26:41;99722.77;;;23.07;77.69
70971;BME280;58632;51.718;19.446;2023-05-24T11:29:08;99729.98;;;22.95;75.61
70971;BME280;58632;51.718;19.446;2023-05-24T11:31:33;99727.65;;;22.81;76.80
70971;BME280;58632;51.718;19.446;2023-05-24T11:34:03;99725.48;;;22.68;76.11
70971;BME280;58632;51.718;19.446;2023-05-24T11:36:29;99726.84;;;22.68;80.63
70971;BME280;58632;51.718;19.446;2023-05-24T11:38:54;99727.65;;;22.83;80.52
70971;BME280;58632;51.718;19.446;2023-05-24T11:41:20;99724.49;;;22.91;80.69
70971;BME280;58632;51.718;19.446;2023-05-24T11:43:46;99726.17;;;23.11;80.20
70971;BME280;58632;51.718;19.446;2023-05-24T11:46:31;99732.19;;;23.02;77.14
70971;BME280;58632;51.718;19.446;2023-05-24T11:48:57;99739.35;;;22.88;80.02
70971;BME280;58632;51.718;19.446;2023-05-24T11:51:26;99738.08;;;22.86;79.88
70971;BME280;58632;51.718;19.446;2023-05-24T11:53:52;99739.53;;;22.85;80.21
70971;BME280;58632;51.718;19.446;2023-05-24T11:56:18;99736.91;;;22.79;79.81
70971;BME280;58632;51.718;19.446;2023-05-24T11:58:47;99737.15;;;22.62;80.35
70971;BME280;58632;51.718;19.446;2023-05-24T12:01:23;99742.63;;;22.45;82.26
70971;BME280;58632;51.718;19.446;2023-05-24T12:03:49;99752.08;;;22.36;84.03
70971;BME280;58632;51.718;19.446;2023-05-24T12:06:15;99755.40;;;22.44;84.39
70971;BME280;58632;51.718;19.446;2023-05-24T12:08:40;99751.15;;;22.48;82.59
70971;BME280;58632;51.718;19.446;2023-05-24T12:11:06;99755.02;;;22.36;82.22
70971;BME280;58632;51.718;19.446;2023-05-24T12:13:31;99755.92;;;22.25;82.38
70971;BME280;58632;51.718;19.446;2023-05-24T12:15:59;99760.23;;;22.06;84.43
70971;BME280;58632;51.718;19.446;2023-05-24T12:18:27;99762.79;;;22.10;85.61
70971;BME280;58632;51.718;19.446;2023-05-24T12:20:53;99766.52;;;22.14;85.28
70971;BME280;58632;51.718;19.446;2023-05-24T12:23:19;99768.19;;;22.03;85.36
70971;BME280;58632;51.718;19.446;2023-05-24T12:25:45;99772.35;;;21.91;86.14
70971;BME280;58632;51.718;19.446;2023-05-24T12:28:11;99776.75;;;21.70;86.51
70971;BME280;58632;51.718;19.446;2023-05-24T12:30:37;99775.38;;;21.47;86.71
70971;BME280;58632;51.718;19.446;2023-05-24T12:33:07;99780.73;;;21.25;89.01
70971;BME280;58632;51.718;19.446;2023-05-24T12:35:33;99785.82;;;21.01;90.59
70971;BME280;58632;51.718;19.446;2023-05-24T12:37:58;99785.41;;;20.75;92.52
70971;BME280;58632;51.718;19.446;2023-05-24T12:40:26;99777.92;;;20.45;94.35
70971;BME280;58632;51.718;19.446;2023-05-24T12:42:52;99781.51;;;20.35;96.46
70971;BME280;58632;51.718;19.446;2023-05-24T12:45:19;99775.81;;;20.38;97.01
70971;BME280;58632;51.718;19.446;2023-05-24T12:47:48;99777.38;;;20.37;98.07
70971;BME280;58632;51.718;19.446;2023-05-24T12:50:13;99771.70;;;20.42;99.15
70971;BME280;58632;51.718;19.446;2023-05-24T12:52:41;99766.19;;;20.36;99.50
70971;BME280;58632;51.718;19.446;2023-05-24T12:55:06;99768.09;;;20.37;99.59
70971;BME280;58632;51.718;19.446;2023-05-24T12:57:32;99770.67;;;20.43;99.14
70971;BME280;58632;51.718;19.446;2023-05-24T12:59:58;99767.81;;;20.44;98.71
70971;BME280;58632;51.718;19.446;2023-05-24T13:02:23;99772.60;;;20.34;99.14